PWSweather.com
Personal Weather Stations
Station Observations
WILS01
Leuven, WilseleBE 3012

LeuvenWilseleBE 3012

Lat: 50.89518, Lon: 4.69741

Elevation: 120

Station Type: DAVIS VP2

Latest ConditionsUpdated 7:44:38 PM GMT+01:01 Friday, May 6, 2016
Currently Today's Max Today's Min Today's Average
Temperature 74.1°F23.4°C 79.5°F26.4°C 49.3°F9.6°C 65.3°F18.5°C
Dew Point 52.5°F11.4°C 53.2°F11.8°C 43.0°F6.1°C 48.0°F8.9°C
Winds Calm Calm 2.9 mph SW4.7 kmh SW - 1.0 mph 1.6 kmh
Wind Gusts -- 4.0 mph6.4 kmh - -
Humidity 47% 82% 32% 57%
Pressure 29.81 in1009.5 mb 30.03 in1016.9 mb 29.81 in1009.5 mb -
Hour Temp Dew Point Humidity Winds Wind Gusts Pressure Precip Precip Rate Daily Precip Total
07:44 PM 74.1°F23.4°C 52.5°F11.4°C 47% Calm Calm -- 29.81 in1009.5 mb - 0.00 in0.0 mm 0.00 in0.0 mm
07:34 PM 74.7°F23.7°C 52.3°F11.3°C 45% Calm Calm -- 29.81 in1009.5 mb - 0.00 in0.0 mm 0.00 in0.0 mm
07:23 PM 75.0°F23.9°C 51.3°F10.7°C 43% Calm Calm 0.2 mph0.3 kmh 29.81 in1009.5 mb - 0.00 in0.0 mm 0.00 in0.0 mm
07:13 PM 75.4°F24.1°C 51.1°F10.6°C 42% 0.9 mph WSW1.4 kmh WSW 0.4 mph0.6 kmh 29.81 in1009.5 mb - 0.00 in0.0 mm 0.00 in0.0 mm
07:02 PM 75.9°F24.4°C 49.8°F9.9°C 40% 2.0 mph SW3.2 kmh SW 2.0 mph3.2 kmh 29.81 in1009.5 mb - 0.00 in0.0 mm 0.00 in0.0 mm
06:52 PM 76.6°F24.8°C 49.1°F9.5°C 38% 0.9 mph SW1.4 kmh SW 2.2 mph3.5 kmh 29.81 in1009.5 mb - 0.00 in0.0 mm 0.00 in0.0 mm
06:42 PM 77.2°F25.1°C 48.2°F9.0°C 36% 2.0 mph WSW3.2 kmh WSW 1.3 mph2.1 kmh 29.81 in1009.5 mb - 0.00 in0.0 mm 0.00 in0.0 mm
06:31 PM 77.5°F25.3°C 48.6°F9.2°C 36% 0.9 mph SW1.4 kmh SW 0.2 mph0.3 kmh 29.81 in1009.5 mb - 0.00 in0.0 mm 0.00 in0.0 mm
06:21 PM 77.9°F25.5°C 48.7°F9.3°C 36% 0.9 mph SSW1.4 kmh SSW 0.9 mph1.4 kmh 29.81 in1009.5 mb - 0.00 in0.0 mm 0.00 in0.0 mm
06:11 PM 78.1°F25.6°C 48.2°F9.0°C 35% 2.0 mph SW3.2 kmh SW 1.6 mph2.6 kmh 29.81 in1009.5 mb - 0.00 in0.0 mm 0.00 in0.0 mm
06:00 PM 78.4°F25.8°C 48.2°F9.0°C 34% 2.0 mph SE3.2 kmh SE 2.2 mph3.5 kmh 29.81 in1009.5 mb - 0.00 in0.0 mm 0.00 in0.0 mm
05:50 PM 78.8°F26.0°C 48.4°F9.1°C 34% 1.1 mph WSW1.8 kmh WSW 1.3 mph2.1 kmh 29.81 in1009.5 mb - 0.00 in0.0 mm 0.00 in0.0 mm
05:40 PM 79.0°F26.1°C 48.2°F9.0°C 34% 2.0 mph WSW3.2 kmh WSW 1.8 mph2.9 kmh 29.81 in1009.5 mb - 0.00 in0.0 mm 0.00 in0.0 mm
05:30 PM 79.2°F26.2°C 48.4°F9.1°C 34% 2.0 mph SW3.2 kmh SW 2.2 mph3.5 kmh 29.81 in1009.5 mb - 0.00 in0.0 mm 0.00 in0.0 mm
05:19 PM 79.0°F26.1°C 48.2°F9.0°C 34% 0.9 mph ENE1.4 kmh ENE 1.8 mph2.9 kmh 29.81 in1009.5 mb - 0.00 in0.0 mm 0.00 in0.0 mm
05:09 PM 78.4°F25.8°C 48.2°F9.0°C 34% 2.7 mph SSW4.3 kmh SSW 1.3 mph2.1 kmh 29.82 in1009.8 mb - 0.00 in0.0 mm 0.00 in0.0 mm
04:59 PM 78.4°F25.8°C 47.7°F8.7°C 34% 2.9 mph SW4.7 kmh SW 4.0 mph6.4 kmh 29.82 in1009.8 mb - 0.00 in0.0 mm 0.00 in0.0 mm
04:48 PM 78.6°F25.9°C 47.1°F8.4°C 33% 2.9 mph SW4.7 kmh SW 2.0 mph3.2 kmh 29.82 in1009.8 mb - 0.00 in0.0 mm 0.00 in0.0 mm
04:37 PM 78.8°F26.0°C 47.5°F8.6°C 33% 2.2 mph SW3.5 kmh SW 2.0 mph3.2 kmh 29.81 in1009.5 mb - 0.00 in0.0 mm 0.00 in0.0 mm
04:27 PM 79.0°F26.1°C 46.9°F8.3°C 32% 2.0 mph SW3.2 kmh SW 2.7 mph4.3 kmh 29.82 in1009.8 mb - 0.00 in0.0 mm 0.00 in0.0 mm
04:17 PM 79.3°F26.3°C 48.0°F8.9°C 33% 2.7 mph S4.3 kmh S 2.5 mph4.0 kmh 29.82 in1009.8 mb - 0.00 in0.0 mm 0.00 in0.0 mm
04:06 PM 79.3°F26.3°C 48.0°F8.9°C 33% 2.0 mph SW3.2 kmh SW 1.1 mph1.8 kmh 29.82 in1009.8 mb - 0.00 in0.0 mm 0.00 in0.0 mm
03:56 PM 79.0°F26.1°C 48.2°F9.0°C 34% 2.0 mph WNW3.2 kmh WNW 1.3 mph2.1 kmh 29.83 in1010.2 mb - 0.00 in0.0 mm 0.00 in0.0 mm
03:46 PM 78.4°F25.8°C 47.7°F8.7°C 34% 2.7 mph SW4.3 kmh SW 1.8 mph2.9 kmh 29.83 in1010.2 mb - 0.00 in0.0 mm 0.00 in0.0 mm
03:36 PM 78.6°F25.9°C 47.8°F8.8°C 34% 2.9 mph SW4.7 kmh SW 2.9 mph4.7 kmh 29.83 in1010.2 mb - 0.00 in0.0 mm 0.00 in0.0 mm
03:25 PM 78.4°F25.8°C 49.1°F9.5°C 35% 2.9 mph W4.7 kmh W 2.2 mph3.5 kmh 29.83 in1010.2 mb - 0.00 in0.0 mm 0.00 in0.0 mm
03:15 PM 78.4°F25.8°C 48.6°F9.2°C 35% 2.0 mph WSW3.2 kmh WSW 2.0 mph3.2 kmh 29.83 in1010.2 mb - 0.00 in0.0 mm 0.00 in0.0 mm
03:04 PM 78.6°F25.9°C 48.7°F9.3°C 35% 2.0 mph NNE3.2 kmh NNE 2.0 mph3.2 kmh 29.83 in1010.2 mb - 0.00 in0.0 mm 0.00 in0.0 mm
02:54 PM 78.4°F25.8°C 48.0°F8.9°C 34% 1.8 mph WNW2.9 kmh WNW 0.7 mph1.1 kmh 29.84 in1010.5 mb - 0.00 in0.0 mm 0.00 in0.0 mm
02:43 PM 78.4°F25.8°C 47.7°F8.7°C 34% 2.9 mph SW4.7 kmh SW 2.5 mph4.0 kmh 29.84 in1010.5 mb - 0.00 in0.0 mm 0.00 in0.0 mm
02:33 PM 79.5°F26.4°C 48.7°F9.3°C 34% 2.0 mph ESE3.2 kmh ESE 3.1 mph5.0 kmh 29.84 in1010.5 mb - 0.00 in0.0 mm 0.00 in0.0 mm
02:22 PM 79.3°F26.3°C 49.5°F9.7°C 35% 0.9 mph S1.4 kmh S 2.2 mph3.5 kmh 29.84 in1010.5 mb - 0.00 in0.0 mm 0.00 in0.0 mm
02:12 PM 78.4°F25.8°C 49.3°F9.6°C 36% 2.0 mph 3.2 kmh 0.9 mph1.4 kmh 29.85 in1010.8 mb - 0.00 in0.0 mm 0.00 in0.0 mm
02:02 PM 78.4°F25.8°C 49.6°F9.8°C 36% 2.0 mph NE3.2 kmh NE 3.4 mph5.5 kmh 29.85 in1010.8 mb - 0.00 in0.0 mm 0.00 in0.0 mm
01:51 PM 78.4°F25.8°C 50.0°F10.0°C 37% 1.6 mph E2.6 kmh E 1.3 mph2.1 kmh 29.85 in1010.8 mb - 0.00 in0.0 mm 0.00 in0.0 mm
01:41 PM 78.3°F25.7°C 50.4°F10.2°C 37% 2.0 mph WSW3.2 kmh WSW 1.3 mph2.1 kmh 29.85 in1010.8 mb - 0.00 in0.0 mm 0.00 in0.0 mm
01:30 PM 77.7°F25.4°C 51.3°F10.7°C 39% 0.9 mph E1.4 kmh E 1.3 mph2.1 kmh 29.86 in1011.2 mb - 0.00 in0.0 mm 0.00 in0.0 mm
01:20 PM 77.5°F25.3°C 50.9°F10.5°C 39% 2.0 mph SW3.2 kmh SW 1.8 mph2.9 kmh 29.86 in1011.2 mb - 0.00 in0.0 mm 0.00 in0.0 mm
01:10 PM 76.6°F24.8°C 52.0°F11.1°C 42% 2.0 mph ENE3.2 kmh ENE 1.3 mph2.1 kmh 29.86 in1011.2 mb - 0.00 in0.0 mm 0.00 in0.0 mm
01:00 PM 76.3°F24.6°C 52.7°F11.5°C 44% 0.9 mph S1.4 kmh S 2.5 mph4.0 kmh 29.86 in1011.2 mb - 0.00 in0.0 mm 0.00 in0.0 mm
12:50 PM 75.2°F24.0°C 52.7°F11.5°C 45% 2.0 mph NNE3.2 kmh NNE 2.0 mph3.2 kmh 29.87 in1011.5 mb - 0.00 in0.0 mm 0.00 in0.0 mm
12:39 PM 74.5°F23.6°C 52.7°F11.5°C 46% 2.0 mph S3.2 kmh S 1.6 mph2.6 kmh 29.87 in1011.5 mb - 0.00 in0.0 mm 0.00 in0.0 mm
12:29 PM 74.5°F23.6°C 52.5°F11.4°C 46% 2.0 mph NW3.2 kmh NW 1.1 mph1.8 kmh 29.88 in1011.9 mb - 0.00 in0.0 mm 0.00 in0.0 mm
12:19 PM 74.8°F23.8°C 52.7°F11.5°C 46% 1.1 mph E1.8 kmh E 2.5 mph4.0 kmh 29.88 in1011.9 mb - 0.00 in0.0 mm 0.00 in0.0 mm
12:08 PM 73.0°F22.8°C 52.7°F11.5°C 49% 1.8 mph ESE2.9 kmh ESE 0.9 mph1.4 kmh 29.88 in1011.9 mb - 0.00 in0.0 mm 0.00 in0.0 mm
11:58 AM 72.3°F22.4°C 52.2°F11.2°C 49% 2.2 mph ENE3.5 kmh ENE 3.6 mph5.8 kmh 29.88 in1011.9 mb - 0.00 in0.0 mm 0.00 in0.0 mm
11:47 AM 71.8°F22.1°C 51.1°F10.6°C 48% 2.7 mph NE4.3 kmh NE 2.5 mph4.0 kmh 29.89 in1012.2 mb - 0.00 in0.0 mm 0.00 in0.0 mm
11:37 AM 71.8°F22.1°C 52.3°F11.3°C 50% 2.2 mph NE3.5 kmh NE 0.9 mph1.4 kmh 29.89 in1012.2 mb - 0.00 in0.0 mm 0.00 in0.0 mm
11:26 AM 71.1°F21.7°C 52.3°F11.3°C 51% 0.9 mph NNE1.4 kmh NNE 0.9 mph1.4 kmh 29.89 in1012.2 mb - 0.00 in0.0 mm 0.00 in0.0 mm
11:16 AM 70.0°F21.1°C 52.3°F11.3°C 53% 0.9 mph SW1.4 kmh SW 1.3 mph2.1 kmh 29.90 in1012.5 mb - 0.00 in0.0 mm 0.00 in0.0 mm
11:06 AM 69.1°F20.6°C 53.2°F11.8°C 57% 1.8 mph ENE2.9 kmh ENE 1.6 mph2.6 kmh 29.90 in1012.5 mb - 0.00 in0.0 mm 0.00 in0.0 mm
10:56 AM 68.7°F20.4°C 53.1°F11.7°C 57% 1.6 mph NE2.6 kmh NE 1.1 mph1.8 kmh 29.90 in1012.5 mb - 0.00 in0.0 mm 0.00 in0.0 mm
10:45 AM 68.4°F20.2°C 52.5°F11.4°C 57% 2.0 mph SE3.2 kmh SE 1.1 mph1.8 kmh 29.90 in1012.5 mb - 0.00 in0.0 mm 0.00 in0.0 mm
10:34 AM 68.2°F20.1°C 51.8°F11.0°C 56% 0.9 mph NE1.4 kmh NE 2.0 mph3.2 kmh 29.91 in1012.9 mb - 0.00 in0.0 mm 0.00 in0.0 mm
10:24 AM 67.3°F19.6°C 51.3°F10.7°C 56% 0.9 mph SSW1.4 kmh SSW 1.1 mph1.8 kmh 29.91 in1012.9 mb - 0.00 in0.0 mm 0.00 in0.0 mm
10:13 AM 66.6°F19.2°C 50.9°F10.5°C 57% 0.9 mph WNW1.4 kmh WNW 0.9 mph1.4 kmh 29.91 in1012.9 mb - 0.00 in0.0 mm 0.00 in0.0 mm
10:03 AM 65.8°F18.8°C 51.1°F10.6°C 59% 0.9 mph E1.4 kmh E 0.4 mph0.6 kmh 29.91 in1012.9 mb - 0.00 in0.0 mm 0.00 in0.0 mm
09:53 AM 65.3°F18.5°C 50.5°F10.3°C 59% 0.9 mph ENE1.4 kmh ENE 1.3 mph2.1 kmh 29.91 in1012.9 mb - 0.00 in0.0 mm 0.00 in0.0 mm
09:41 AM 65.1°F18.4°C 50.2°F10.1°C 58% 0.2 mph NE0.3 kmh NE 0.9 mph1.4 kmh 29.91 in1012.9 mb - 0.00 in0.0 mm 0.00 in0.0 mm
09:31 AM 64.4°F18.0°C 50.4°F10.2°C 60% Calm Calm 0.2 mph0.3 kmh 29.92 in1013.2 mb - 0.00 in0.0 mm 0.00 in0.0 mm
09:20 AM 64.0°F17.8°C 49.8°F9.9°C 60% 0.2 mph ESE0.3 kmh ESE 0.2 mph0.3 kmh 29.92 in1013.2 mb - 0.00 in0.0 mm 0.00 in0.0 mm
09:10 AM 63.3°F17.4°C 49.5°F9.7°C 60% 0.9 mph SSW1.4 kmh SSW 1.1 mph1.8 kmh 29.92 in1013.2 mb - 0.00 in0.0 mm 0.00 in0.0 mm
08:59 AM 63.0°F17.2°C 49.3°F9.6°C 61% 0.9 mph WSW1.4 kmh WSW 0.4 mph0.6 kmh 29.92 in1013.2 mb - 0.00 in0.0 mm 0.00 in0.0 mm
08:48 AM 62.4°F16.9°C 49.3°F9.6°C 62% 0.9 mph ESE1.4 kmh ESE 0.7 mph1.1 kmh 29.93 in1013.5 mb - 0.00 in0.0 mm 0.00 in0.0 mm
08:37 AM 61.9°F16.6°C 49.1°F9.5°C 63% 1.8 mph NE2.9 kmh NE 2.0 mph3.2 kmh 29.93 in1013.5 mb - 0.00 in0.0 mm 0.00 in0.0 mm
08:27 AM 61.3°F16.3°C 48.9°F9.4°C 63% 0.9 mph E1.4 kmh E 1.3 mph2.1 kmh 29.93 in1013.5 mb - 0.00 in0.0 mm 0.00 in0.0 mm
08:16 AM 60.4°F15.8°C 48.2°F9.0°C 64% 0.9 mph NE1.4 kmh NE 0.9 mph1.4 kmh 29.94 in1013.9 mb - 0.00 in0.0 mm 0.00 in0.0 mm
08:06 AM 60.1°F15.6°C 48.7°F9.3°C 66% 0.9 mph NE1.4 kmh NE 0.7 mph1.1 kmh 29.94 in1013.9 mb - 0.00 in0.0 mm 0.00 in0.0 mm
07:55 AM 59.5°F15.3°C 48.6°F9.2°C 67% 0.2 mph E0.3 kmh E 0.2 mph0.3 kmh 29.94 in1013.9 mb - 0.00 in0.0 mm 0.00 in0.0 mm
07:45 AM 59.2°F15.1°C 48.2°F9.0°C 67% 0.9 mph SE1.4 kmh SE 0.2 mph0.3 kmh 29.94 in1013.9 mb - 0.00 in0.0 mm 0.00 in0.0 mm
07:35 AM 58.6°F14.8°C 48.2°F9.0°C 68% 0.9 mph E1.4 kmh E 0.7 mph1.1 kmh 29.94 in1013.9 mb - 0.00 in0.0 mm 0.00 in0.0 mm
07:25 AM 57.9°F14.4°C 48.2°F9.0°C 70% Calm Calm 0.7 mph1.1 kmh 29.94 in1013.9 mb - 0.00 in0.0 mm 0.00 in0.0 mm
07:14 AM 56.8°F13.8°C 47.7°F8.7°C 71% 0.9 mph NNE1.4 kmh NNE 0.4 mph0.6 kmh 29.94 in1013.9 mb - 0.00 in0.0 mm 0.00 in0.0 mm
07:04 AM 56.1°F13.4°C 47.7°F8.7°C 73% 0.7 mph ESE1.1 kmh ESE 0.2 mph0.3 kmh 29.94 in1013.9 mb - 0.00 in0.0 mm 0.00 in0.0 mm
06:53 AM 55.2°F12.9°C 47.1°F8.4°C 74% Calm Calm 0.2 mph0.3 kmh 29.94 in1013.9 mb - 0.00 in0.0 mm 0.00 in0.0 mm
06:43 AM 54.1°F12.3°C 46.8°F8.2°C 76% Calm Calm 0.4 mph0.6 kmh 29.95 in1014.2 mb - 0.00 in0.0 mm 0.00 in0.0 mm
06:33 AM 53.2°F11.8°C 46.2°F7.9°C 77% Calm Calm -- 29.95 in1014.2 mb - 0.00 in0.0 mm 0.00 in0.0 mm
06:22 AM 52.9°F11.6°C 46.0°F7.8°C 77% Calm Calm 0.2 mph0.3 kmh 29.95 in1014.2 mb - 0.00 in0.0 mm 0.00 in0.0 mm
06:11 AM 52.2°F11.2°C 45.9°F7.7°C 79% Calm Calm 0.2 mph0.3 kmh 29.94 in1013.9 mb - 0.00 in0.0 mm 0.00 in0.0 mm
06:01 AM 51.3°F10.7°C 45.3°F7.4°C 80% Calm Calm -- 29.95 in1014.2 mb - 0.00 in0.0 mm 0.00 in0.0 mm
05:50 AM 50.9°F10.5°C 45.0°F7.2°C 80% Calm Calm -- 29.95 in1014.2 mb - 0.00 in0.0 mm 0.00 in0.0 mm
05:40 AM 50.7°F10.4°C 45.0°F7.2°C 80% Calm Calm -- 29.95 in1014.2 mb - 0.00 in0.0 mm 0.00 in0.0 mm
05:29 AM 50.4°F10.2°C 44.8°F7.1°C 81% Calm Calm 0.2 mph0.3 kmh 29.95 in1014.2 mb - 0.00 in0.0 mm 0.00 in0.0 mm
05:19 AM 50.0°F10.0°C 44.8°F7.1°C 82% Calm Calm 0.4 mph0.6 kmh 29.95 in1014.2 mb - 0.00 in0.0 mm 0.00 in0.0 mm
05:09 AM 49.6°F9.8°C 44.4°F6.9°C 82% Calm Calm -- 29.96 in1014.6 mb - 0.00 in0.0 mm 0.00 in0.0 mm
04:59 AM 49.3°F9.6°C 44.1°F6.7°C 82% Calm Calm 0.2 mph0.3 kmh 29.96 in1014.6 mb - 0.00 in0.0 mm 0.00 in0.0 mm
04:48 AM 49.3°F9.6°C 43.7°F6.5°C 81% Calm Calm -- 29.96 in1014.6 mb - 0.00 in0.0 mm 0.00 in0.0 mm
04:38 AM 49.3°F9.6°C 43.7°F6.5°C 81% Calm Calm -- 29.96 in1014.6 mb - 0.00 in0.0 mm 0.00 in0.0 mm
04:27 AM 49.5°F9.7°C 43.9°F6.6°C 81% Calm Calm -- 29.97 in1014.9 mb - 0.00 in0.0 mm 0.00 in0.0 mm
04:17 AM 49.5°F9.7°C 43.9°F6.6°C 81% Calm Calm -- 29.97 in1014.9 mb - 0.00 in0.0 mm 0.00 in0.0 mm
04:07 AM 49.6°F9.8°C 43.0°F6.1°C 78% Calm Calm -- 29.98 in1015.2 mb - 0.00 in0.0 mm 0.00 in0.0 mm
03:57 AM 50.0°F10.0°C 43.2°F6.2°C 77% Calm Calm -- 29.98 in1015.2 mb - 0.00 in0.0 mm 0.00 in0.0 mm
03:46 AM 50.5°F10.3°C 43.3°F6.3°C 76% Calm Calm -- 29.98 in1015.2 mb - 0.00 in0.0 mm 0.00 in0.0 mm
03:36 AM 51.1°F10.6°C 43.7°F6.5°C 76% Calm Calm -- 29.98 in1015.2 mb - 0.00 in0.0 mm 0.00 in0.0 mm
03:26 AM 51.3°F10.7°C 44.2°F6.8°C 77% Calm Calm -- 29.99 in1015.6 mb - 0.00 in0.0 mm 0.00 in0.0 mm
03:15 AM 51.6°F10.9°C 44.2°F6.8°C 76% Calm Calm -- 29.99 in1015.6 mb - 0.00 in0.0 mm 0.00 in0.0 mm
03:05 AM 51.4°F10.8°C 44.4°F6.9°C 77% Calm Calm -- 29.99 in1015.6 mb - 0.00 in0.0 mm 0.00 in0.0 mm
02:54 AM 51.4°F10.8°C 44.4°F6.9°C 77% Calm Calm -- 29.99 in1015.6 mb - 0.00 in0.0 mm 0.00 in0.0 mm
02:44 AM 51.4°F10.8°C 44.1°F6.7°C 76% Calm Calm -- 29.99 in1015.6 mb - 0.00 in0.0 mm 0.00 in0.0 mm
02:34 AM 52.0°F11.1°C 44.1°F6.7°C 74% Calm Calm -- 30.00 in1015.9 mb - 0.00 in0.0 mm 0.00 in0.0 mm
02:23 AM 52.5°F11.4°C 44.1°F6.7°C 73% Calm Calm -- 30.00 in1015.9 mb - 0.00 in0.0 mm 0.00 in0.0 mm
02:13 AM 53.2°F11.8°C 44.4°F6.9°C 72% Calm Calm -- 30.00 in1015.9 mb - 0.00 in0.0 mm 0.00 in0.0 mm
02:03 AM 53.8°F12.1°C 44.8°F7.1°C 71% Calm Calm -- 30.00 in1015.9 mb - 0.00 in0.0 mm 0.00 in0.0 mm
01:52 AM 54.0°F12.2°C 44.8°F7.1°C 71% Calm Calm -- 30.00 in1015.9 mb - 0.00 in0.0 mm 0.00 in0.0 mm
01:38 AM 54.0°F12.2°C 44.8°F7.1°C 71% Calm Calm 0.2 mph0.3 kmh 30.01 in1016.3 mb - 0.00 in0.0 mm 0.00 in0.0 mm
01:28 AM 54.0°F12.2°C 44.8°F7.1°C 71% Calm Calm -- 30.01 in1016.3 mb - 0.00 in0.0 mm 0.00 in0.0 mm
01:18 AM 54.0°F12.2°C 45.1°F7.3°C 72% Calm Calm -- 30.01 in1016.3 mb - 0.00 in0.0 mm 0.00 in0.0 mm
01:08 AM 54.0°F12.2°C 44.8°F7.1°C 71% Calm Calm -- 30.01 in1016.3 mb - 0.00 in0.0 mm 0.00 in0.0 mm
12:57 AM 54.1°F12.3°C 45.0°F7.2°C 71% Calm Calm -- 30.02 in1016.6 mb - 0.00 in0.0 mm 0.00 in0.0 mm
12:47 AM 54.3°F12.4°C 45.1°F7.3°C 71% Calm Calm -- 30.02 in1016.6 mb - 0.00 in0.0 mm 0.00 in0.0 mm
12:37 AM 54.7°F12.6°C 45.0°F7.2°C 69% Calm Calm -- 30.02 in1016.6 mb - 0.00 in0.0 mm 0.00 in0.0 mm
12:27 AM 54.9°F12.7°C 45.0°F7.2°C 69% Calm Calm -- 30.03 in1016.9 mb - 0.00 in0.0 mm 0.00 in0.0 mm
12:17 AM 54.9°F12.7°C 45.3°F7.4°C 70% Calm Calm -- 30.03 in1016.9 mb - 0.00 in0.0 mm 0.00 in0.0 mm
12:06 AM 55.2°F12.9°C 45.1°F7.3°C 69% Calm Calm -- 30.03 in1016.9 mb - 0.00 in0.0 mm 0.00 in0.0 mm